Portada
METAR-TAF:

METAR-TAF

Aeroports :

Al-Kuwait, Kuwait

latitud: 29-13N, longitud: 047-59E, altitud: 55 m

Observació

L'informe es va fer fa 40 minuts, a les 00:00 UTC
Vent 4 kt del Sud-Est
Temperatura 21°C
Humitat 56%
Pressió 1008 hPa
Visibilitat 10 km o més
sense núvols per sota de 1500 mi sense presència de cumulonimbus.

METAR: OKKK 180000Z 14004KT CAVOK 21/12 Q1008 NOSIG

Hora: 03:40 (00:40 UTC)

Pronòstic

L'informe es va fer fa 7 hores i 40 minuts, a les 17:00 UTC
Pronòstic vàlid del 17 a les 18 UTC al 18 a les 24 UTC
Vent 10 kt del Sud-Est
Visibilitat: 7000 m
Temporalment
l' 17 a les 20 UTC al 18 a les 06 UTC
Vent 3 kt amb direcció variable
Visibilitat: 3000 m
boirina,

TAF: OKKK 171700Z 1718/1824 14010KT 7000 NSC TEMPO 1720/1806 VRB03KT 3000 BR

Observacions i pronòstics meteorològics de més de 4000 aeroports (METAR i TAF).

Les estacions disponibles són els punts grocs i vermells al mapa.

Posi el ratolí al punt desitjat per veure el nom de l'estació.

Feu clic per veure les observacions i els pronòstics meteorològics.

Per canviar el mapa: feu clic els botons verds amb una creu de color negre per apropar; al botó verd amb un guió per allunyar la imatge; o en les fletxes verdes per a mapes adjacents.


METAR-TAF: